Time;durP1;ratioP1;P1;durP2;ratioP2;P2;SDS_P1;SDS_P2;PMS_P1;PMS_P2;Temp;Humidity;BMP_temperature;BMP_pressure;BME280_temperature;BME280_humidity;BME280_pressure;Samples;Min_cycle;Max_cycle;Signal;HPM_P1;HPM_P2
2021/01/09 00:00:03;;;;;;;2.40;2.00;;;;;;;2.94;100.00;94531.88;5096055;28;20572;-88
2021/01/09 00:02:30;;;;;;;2.33;2.17;;;;;;;2.80;100.00;94526.69;5076680;28;20572;-88
2021/01/09 00:04:57;;;;;;;2.60;1.80;;;;;;;2.83;100.00;94533.44;5095741;28;20465;-86
2021/01/09 00:07:23;;;;;;;2.10;1.90;;;;;;;2.86;100.00;94526.31;5095330;28;20199;-88
2021/01/09 00:09:49;;;;;;;2.88;1.60;;;;;;;2.84;100.00;94522.97;5094659;28;20209;-87
2021/01/09 00:12:16;;;;;;;2.30;1.60;;;;;;;2.89;100.00;94531.34;5095394;28;20212;-88
2021/01/09 00:14:42;;;;;;;1.83;1.37;;;;;;;2.93;100.00;94532.81;5095479;28;20450;-86
2021/01/09 00:17:08;;;;;;;2.60;1.63;;;;;;;2.90;100.00;94547.72;5096342;28;20512;-86
2021/01/09 00:19:36;;;;;;;2.70;1.80;;;;;;;2.86;100.00;94565.16;5107211;28;20448;-88
2021/01/09 00:22:02;;;;;;;2.20;1.90;;;;;;;2.90;100.00;94566.69;5098244;28;20429;-86
2021/01/09 00:24:29;;;;;;;2.65;2.00;;;;;;;2.93;100.00;94556.13;5096207;28;20256;-87
2021/01/09 00:26:55;;;;;;;1.63;1.10;;;;;;;2.93;100.00;94553.53;5095406;28;20212;-87
2021/01/09 00:29:21;;;;;;;1.65;1.55;;;;;;;2.96;100.00;94561.13;5095199;28;20439;-87
2021/01/09 00:31:47;;;;;;;1.70;1.60;;;;;;;2.91;100.00;94555.38;5042975;28;20210;-87
2021/01/09 00:34:14;;;;;;;1.38;1.27;;;;;;;2.89;100.00;94552.06;5095068;28;20487;-87
2021/01/09 00:36:47;;;;;;;1.60;1.43;;;;;;;2.85;100.00;94545.38;5042790;28;20197;-88
2021/01/09 00:39:13;;;;;;;1.47;1.37;;;;;;;2.86;100.00;94552.22;5094552;28;20450;-87
2021/01/09 00:41:40;;;;;;;3.87;1.57;;;;;;;2.88;100.00;94552.97;5094606;28;20489;-87
2021/01/09 00:44:07;;;;;;;2.00;1.70;;;;;;;2.89;100.00;94553.78;5094556;28;20533;-86
2021/01/09 00:46:34;;;;;;;3.80;1.50;;;;;;;2.93;100.00;94556.13;5094274;28;20512;-85
2021/01/09 00:49:00;;;;;;;2.17;1.97;;;;;;;2.90;100.00;94566.69;5094383;28;20459;-85
2021/01/09 00:51:26;;;;;;;2.80;2.13;;;;;;;2.85;100.00;94557.50;5094494;28;20866;-86
2021/01/09 00:53:54;;;;;;;1.53;1.33;;;;;;;2.93;100.00;94552.72;5094530;28;20482;-86
2021/01/09 00:56:20;;;;;;;1.47;1.37;;;;;;;2.93;100.00;94558.72;5094178;28;20467;-87
2021/01/09 00:58:47;;;;;;;1.30;1.13;;;;;;;2.92;100.00;94566.59;5094171;28;20439;-87
2021/01/09 01:01:14;;;;;;;1.20;1.10;;;;;;;3.00;100.00;94565.19;5093946;28;20503;-86
2021/01/09 01:03:42;;;;;;;1.53;1.30;;;;;;;2.96;100.00;94573.25;5094620;28;20443;-86
2021/01/09 01:06:09;;;;;;;1.40;1.30;;;;;;;3.10;100.00;94576.66;5094273;28;20450;-87
2021/01/09 01:08:35;;;;;;;1.30;1.20;;;;;;;3.15;100.00;94584.16;5042283;28;20451;-87
2021/01/09 01:11:02;;;;;;;1.50;1.40;;;;;;;3.25;100.00;94585.28;5094103;28;20197;-86
2021/01/09 01:13:29;;;;;;;1.42;1.33;;;;;;;3.32;100.00;94583.13;5093786;28;20483;-86
2021/01/09 01:15:55;;;;;;;1.63;1.40;;;;;;;3.41;100.00;94591.16;5093849;28;20623;-86
2021/01/09 01:18:22;;;;;;;5.30;2.40;;;;;;;3.40;100.00;94586.91;5093844;28;20443;-86
2021/01/09 01:20:48;;;;;;;4.70;2.33;;;;;;;3.51;100.00;94578.47;5093967;28;20471;-86
2021/01/09 01:23:15;;;;;;;2.03;1.80;;;;;;;3.47;100.00;94576.16;5093667;28;20451;-86
2021/01/09 01:25:41;;;;;;;3.13;2.33;;;;;;;3.45;100.00;94571.06;5093807;28;20423;-86
2021/01/09 01:28:08;;;;;;;2.93;2.40;;;;;;;3.40;100.00;94570.50;5093752;28;20440;-85
2021/01/09 01:30:34;;;;;;;4.20;2.00;;;;;;;3.41;100.00;94572.19;5093658;28;20446;-86
2021/01/09 01:33:01;;;;;;;4.10;3.10;;;;;;;3.39;100.00;94577.47;5093413;28;20963;-85
2021/01/09 01:35:27;;;;;;;3.03;2.27;;;;;;;3.37;100.00;94584.50;5093737;28;20469;-87
2021/01/09 01:37:54;;;;;;;2.37;2.00;;;;;;;3.39;100.00;94587.00;5093747;28;20444;-85
2021/01/09 01:40:24;;;;;;;2.10;1.80;;;;;;;3.39;100.00;94581.81;5093563;28;20935;-85
2021/01/09 01:42:51;;;;;;;2.40;2.20;;;;;;;3.41;100.00;94587.75;5058023;28;20435;-86
2021/01/09 01:45:18;;;;;;;2.77;1.83;;;;;;;3.46;100.00;94587.44;5093388;28;20447;-86
2021/01/09 01:47:46;;;;;;;2.47;2.13;;;;;;;3.52;100.00;94582.75;5093258;28;20857;-85
2021/01/09 01:50:13;;;;;;;2.37;2.17;;;;;;;3.56;100.00;94580.78;5093305;28;20447;-85
2021/01/09 01:52:39;;;;;;;2.57;2.37;;;;;;;3.63;100.00;94580.28;5093407;28;21004;-85
2021/01/09 01:55:07;;;;;;;7.73;3.10;;;;;;;3.69;100.00;94576.47;5093069;28;20443;-86
2021/01/09 01:57:34;;;;;;;3.73;2.63;;;;;;;3.67;100.00;94588.72;5041829;28;20478;-84
2021/01/09 02:00:01;;;;;;;3.70;3.30;;;;;;;3.62;99.53;94570.84;5093591;28;20438;-86
2021/01/09 02:02:28;;;;;;;3.40;2.47;;;;;;;3.69;99.98;94568.69;5093236;28;20443;-85
2021/01/09 02:05:00;;;;;;;4.70;2.40;;;;;;;3.62;99.26;94573.44;5092794;28;20514;-85
2021/01/09 02:07:32;;;;;;;4.40;2.10;;;;;;;3.52;99.57;94581.91;5093043;28;20444;-85
2021/01/09 02:09:58;;;;;;;3.20;2.63;;;;;;;3.52;100.00;94589.69;5092926;28;20435;-85
2021/01/09 02:12:32;;;;;;;4.07;3.27;;;;;;;3.44;100.00;94584.94;5093253;28;20927;-83
2021/01/09 02:15:00;;;;;;;2.37;2.17;;;;;;;3.47;100.00;94583.94;5092756;28;20495;-84
2021/01/09 02:17:29;;;;;;;3.03;1.90;;;;;;;3.49;100.00;94584.69;5093044;28;20443;-84
2021/01/09 02:19:58;;;;;;;4.33;3.00;;;;;;;3.57;100.00;94583.28;5093097;28;20931;-83
2021/01/09 02:22:25;;;;;;;2.90;2.47;;;;;;;3.62;100.00;94583.00;5093303;28;20439;-84
2021/01/09 02:24:52;;;;;;;4.10;2.37;;;;;;;3.63;100.00;94588.06;5093268;28;20451;-84
2021/01/09 02:27:19;;;;;;;2.57;2.37;;;;;;;3.60;100.00;94585.69;5093119;28;20808;-84
2021/01/09 02:29:54;;;;;;;3.30;2.20;;;;;;;3.57;99.89;94585.88;5093420;28;20447;-84
2021/01/09 02:32:27;;;;;;;2.43;1.73;;;;;;;3.61;100.00;94587.34;5093715;28;20439;-83
2021/01/09 02:34:57;;;;;;;2.07;1.87;;;;;;;3.66;99.86;94589.66;5097669;28;20454;-86
2021/01/09 02:37:24;;;;;;;2.00;1.80;;;;;;;3.69;99.40;94589.44;5097330;28;20440;-84
2021/01/09 02:39:52;;;;;;;2.23;2.00;;;;;;;3.60;99.06;94577.91;5096865;28;20446;-84
2021/01/09 02:42:19;;;;;;;2.10;2.00;;;;;;;3.66;99.30;94574.91;5097312;28;20518;-84
2021/01/09 02:44:48;;;;;;;2.27;2.10;;;;;;;3.65;99.90;94583.63;5097414;28;20439;-83
2021/01/09 02:47:15;;;;;;;3.20;1.87;;;;;;;3.68;99.41;94582.59;5061511;28;20435;-84
2021/01/09 02:49:41;;;;;;;1.50;1.40;;;;;;;3.65;99.25;94582.78;5097435;28;20539;-84
2021/01/09 02:52:07;;;;;;;2.10;1.73;;;;;;;3.61;100.00;94584.75;5097073;28;20939;-84
2021/01/09 02:54:34;;;;;;;2.60;2.13;;;;;;;3.48;99.95;94586.47;5096642;28;20490;-83
2021/01/09 02:57:01;;;;;;;1.77;1.67;;;;;;;3.42;100.00;94581.63;5096508;28;20471;-81
2021/01/09 02:59:27;;;;;;;2.80;2.60;;;;;;;3.41;100.00;94585.16;5096380;28;20439;-84
2021/01/09 03:01:54;;;;;;;2.70;2.50;;;;;;;3.44;100.00;94590.13;5096815;28;20445;-83
2021/01/09 03:04:20;;;;;;;2.40;2.20;;;;;;;3.39;100.00;94584.41;5096329;28;20435;-85
2021/01/09 03:06:46;;;;;;;2.10;1.90;;;;;;;3.29;100.00;94583.31;5096388;28;20504;-86
2021/01/09 03:09:13;;;;;;;3.10;2.57;;;;;;;3.27;100.00;94586.00;5060453;28;20423;-84
2021/01/09 03:11:39;;;;;;;3.10;2.87;;;;;;;3.32;100.00;94583.97;5096235;28;20447;-84
2021/01/09 03:14:06;;;;;;;2.87;2.67;;;;;;;3.29;100.00;94591.94;5101889;28;20478;-86
2021/01/09 03:16:33;;;;;;;2.20;2.10;;;;;;;3.35;100.00;94588.13;5099447;28;20446;-84
2021/01/09 03:18:59;;;;;;;2.77;2.57;;;;;;;3.33;100.00;94584.78;5095866;28;20435;-85
2021/01/09 03:21:25;;;;;;;3.10;2.57;;;;;;;3.26;100.00;94580.91;5096172;28;20501;-86
2021/01/09 03:23:52;;;;;;;4.67;3.33;;;;;;;3.24;100.00;94585.38;5095855;28;20540;-84
2021/01/09 03:26:18;;;;;;;5.37;3.90;;;;;;;3.29;100.00;94596.28;5096067;28;20536;-86
2021/01/09 03:28:45;;;;;;;4.17;3.43;;;;;;;3.34;100.00;94592.47;5096120;28;20439;-86
2021/01/09 03:31:12;;;;;;;3.50;2.90;;;;;;;3.41;100.00;94580.78;5095860;28;20439;-86
2021/01/09 03:33:38;;;;;;;9.90;4.67;;;;;;;3.42;100.00;94589.41;5096214;28;20502;-85
2021/01/09 03:36:06;;;;;;;6.80;3.97;;;;;;;3.46;100.00;94588.28;5095913;28;20817;-86
2021/01/09 03:38:32;;;;;;;8.93;3.80;;;;;;;3.57;100.00;94593.66;5095775;28;20474;-85
2021/01/09 03:40:59;;;;;;;7.10;3.83;;;;;;;3.53;99.80;94581.81;5043553;28;20485;-86
2021/01/09 03:43:25;;;;;;;7.07;4.00;;;;;;;3.53;100.00;94587.00;5095661;28;20792;-86
2021/01/09 03:45:52;;;;;;;13.07;5.27;;;;;;;3.42;99.64;94592.00;5094783;28;20440;-85
2021/01/09 03:48:19;;;;;;;5.00;3.67;;;;;;;3.40;99.80;94602.47;5096032;28;20454;-86
2021/01/09 03:50:45;;;;;;;7.63;4.20;;;;;;;3.41;100.00;94605.88;5095646;28;20820;-82
2021/01/09 03:53:12;;;;;;;4.93;3.30;;;;;;;3.36;100.00;94613.97;5095733;28;20479;-86
2021/01/09 03:55:38;;;;;;;6.23;3.40;;;;;;;3.33;100.00;94613.31;5095539;28;20961;-86
2021/01/09 03:58:04;;;;;;;6.70;3.97;;;;;;;3.20;100.00;94612.41;5095740;28;20452;-85
2021/01/09 04:00:31;;;;;;;3.67;2.90;;;;;;;3.23;100.00;94617.41;5095519;28;20833;-86
2021/01/09 04:02:57;;;;;;;5.93;3.50;;;;;;;3.14;100.00;94623.97;5095565;28;20500;-86
2021/01/09 04:05:24;;;;;;;3.87;3.13;;;;;;;3.20;100.00;94625.38;5095591;28;20448;-87
2021/01/09 04:07:51;;;;;;;4.40;3.13;;;;;;;3.20;100.00;94623.63;5095599;28;20446;-86
2021/01/09 04:10:17;;;;;;;9.13;5.00;;;;;;;3.11;100.00;94624.97;5095696;28;20443;-86
2021/01/09 04:12:43;;;;;;;5.97;5.33;;;;;;;3.17;100.00;94633.31;5095526;28;20444;-86
2021/01/09 04:15:11;;;;;;;9.27;7.60;;;;;;;3.19;100.00;94639.25;5094946;28;20448;-86
2021/01/09 04:17:37;;;;;;;7.20;6.60;;;;;;;3.18;100.00;94634.97;5095173;28;20782;-86
2021/01/09 04:20:05;;;;;;;5.60;3.37;;;;;;;3.11;100.00;94644.88;5094996;28;21007;-84
2021/01/09 04:22:32;;;;;;;4.20;3.70;;;;;;;3.10;100.00;94646.63;5095156;28;20447;-86
2021/01/09 04:24:58;;;;;;;6.63;3.93;;;;;;;3.14;100.00;94649.88;5059518;28;20447;-86
2021/01/09 04:27:25;;;;;;;3.20;2.90;;;;;;;3.02;100.00;94641.09;5094903;28;20439;-86
2021/01/09 04:29:51;;;;;;;3.40;2.80;;;;;;;2.98;100.00;94652.56;5095261;28;20452;-86
2021/01/09 04:32:17;;;;;;;7.87;4.37;;;;;;;3.00;100.00;94653.31;5095174;28;20440;-85
2021/01/09 04:34:46;;;;;;;3.70;3.40;;;;;;;3.00;100.00;94648.13;5094860;28;20552;-85
2021/01/09 04:37:12;;;;;;;4.05;3.03;;;;;;;2.95;100.00;94644.97;5094880;28;20449;-86
2021/01/09 04:39:39;;;;;;;15.00;5.60;;;;;;;2.93;100.00;94636.47;5042790;28;20193;-86
2021/01/09 04:42:06;;;;;;;10.77;5.70;;;;;;;3.06;100.00;94655.53;5094519;28;20525;-86
2021/01/09 04:44:33;;;;;;;19.03;8.17;;;;;;;3.09;100.00;94652.75;5094853;28;20440;-84
2021/01/09 04:47:02;;;;;;;14.40;8.27;;;;;;;3.14;100.00;94656.81;5095009;28;20439;-87
2021/01/09 04:49:30;;;;;;;5.70;4.80;;;;;;;3.13;100.00;94643.03;5094900;28;20457;-87
2021/01/09 04:51:57;;;;;;;5.10;3.50;;;;;;;3.19;99.81;94653.06;5094527;28;20812;-86
2021/01/09 04:54:25;;;;;;;3.80;3.50;;;;;;;3.23;100.00;94658.88;5094662;28;20483;-86
2021/01/09 04:56:54;;;;;;;6.23;3.80;;;;;;;3.23;99.86;94659.72;5093894;28;20494;-86
2021/01/09 04:59:22;;;;;;;5.20;3.93;;;;;;;3.22;99.35;94667.59;5094658;28;20444;-85
2021/01/09 05:01:49;;;;;;;6.60;4.50;;;;;;;3.24;99.04;94671.75;5094363;28;20451;-87
2021/01/09 05:04:16;;;;;;;3.50;2.93;;;;;;;3.15;99.64;94676.63;5058766;28;20538;-87
2021/01/09 05:06:44;;;;;;;3.40;3.10;;;;;;;3.21;99.31;94676.28;5094143;28;20935;-86
2021/01/09 05:09:12;;;;;;;3.30;2.93;;;;;;;3.21;99.10;94673.72;5094213;28;20444;-87
2021/01/09 05:11:40;;;;;;;3.63;3.27;;;;;;;3.11;99.96;94674.22;5042649;28;20473;-85
2021/01/09 05:14:08;;;;;;;3.00;2.67;;;;;;;3.17;99.38;94673.03;5094265;28;20492;-87
2021/01/09 05:16:35;;;;;;;3.10;2.90;;;;;;;3.18;99.61;94673.84;5094031;28;20455;-87
2021/01/09 05:19:04;;;;;;;3.27;2.73;;;;;;;3.22;100.00;94688.34;5094175;28;20492;-87
2021/01/09 05:21:34;;;;;;;3.03;2.33;;;;;;;3.26;99.42;94689.81;5094062;28;20927;-87
2021/01/09 05:24:02;;;;;;;2.70;2.50;;;;;;;3.21;99.82;94686.66;5093932;28;20443;-86
2021/01/09 05:26:28;;;;;;;4.40;4.00;;;;;;;3.19;99.51;94694.53;5094079;28;20454;-85
2021/01/09 05:28:55;;;;;;;3.10;2.90;;;;;;;3.09;99.32;94704.59;5093798;28;20443;-86
2021/01/09 05:31:24;;;;;;;3.17;2.70;;;;;;;3.03;99.04;94710.16;5093830;28;20439;-85
2021/01/09 05:33:51;;;;;;;3.90;3.50;;;;;;;2.95;99.67;94716.72;5093624;28;20490;-86
2021/01/09 05:36:19;;;;;;;4.63;4.20;;;;;;;2.94;100.00;94718.47;5093556;28;21008;-85
2021/01/09 05:38:47;;;;;;;3.93;3.63;;;;;;;2.94;100.00;94718.47;5093773;28;20448;-86
2021/01/09 05:41:14;;;;;;;5.43;4.93;;;;;;;2.93;100.00;94719.38;5093854;28;20443;-86
2021/01/09 05:43:41;;;;;;;5.17;3.60;;;;;;;2.93;100.00;94727.16;5094027;28;20455;-86
2021/01/09 05:46:08;;;;;;;3.57;3.27;;;;;;;2.90;100.00;94735.13;5094082;28;20436;-87
2021/01/09 05:48:37;;;;;;;3.77;3.47;;;;;;;2.89;99.84;94730.84;5094207;28;20500;-86
2021/01/09 05:51:06;;;;;;;6.20;4.37;;;;;;;2.91;99.91;94730.75;5094057;28;20528;-85
2021/01/09 05:53:40;;;;;;;10.63;6.20;;;;;;;2.96;100.00;94739.09;5075191;28;20482;-85
2021/01/09 05:56:07;;;;;;;8.63;4.73;;;;;;;2.91;100.00;94738.53;5095514;28;20479;-86
2021/01/09 05:58:35;;;;;;;4.85;4.20;;;;;;;2.83;100.00;94754.50;5094663;28;20446;-85
2021/01/09 06:01:06;;;;;;;17.70;9.47;;;;;;;2.86;100.00;94743.13;5093659;28;20205;-86
2021/01/09 06:03:41;;;;;;;10.17;6.50;;;;;;;2.85;100.00;94752.66;5093865;28;20483;-86
2021/01/09 06:06:26;;;;;;;13.98;9.00;;;;;;;2.87;100.00;94744.78;5099920;28;20439;-86
2021/01/09 06:08:58;;;;;;;10.60;7.35;;;;;;;2.83;100.00;94744.13;5105753;28;20205;-86
2021/01/09 06:11:30;;;;;;;12.48;7.22;;;;;;;2.83;100.00;94741.53;5094314;28;20608;-86
2021/01/09 06:13:59;;;;;;;8.63;5.63;;;;;;;2.79;100.00;94742.66;5058354;28;20260;-87
2021/01/09 06:16:28;;;;;;;6.20;4.68;;;;;;;2.80;100.00;94746.91;5094099;28;20450;-87
2021/01/09 06:18:57;;;;;;;8.65;5.65;;;;;;;2.81;99.91;94751.16;5093879;28;20197;-85
2021/01/09 06:21:23;;;;;;;5.40;4.90;;;;;;;2.85;100.00;94763.03;5093663;28;20273;-85
2021/01/09 06:23:51;;;;;;;4.40;4.03;;;;;;;2.86;100.00;94762.09;5093323;28;20452;-86
2021/01/09 06:26:17;;;;;;;4.72;4.20;;;;;;;2.91;100.00;94770.47;5093736;28;20443;-85
2021/01/09 06:28:50;;;;;;;6.85;5.05;;;;;;;2.93;100.00;94768.63;5041954;28;20201;-86
2021/01/09 06:31:20;;;;;;;5.23;3.90;;;;;;;3.00;100.00;94782.06;5093469;28;20570;-87
2021/01/09 06:33:50;;;;;;;6.57;5.80;;;;;;;2.99;100.00;94786.41;5093047;28;20479;-85
2021/01/09 06:36:18;;;;;;;26.27;11.70;;;;;;;2.99;100.00;94794.19;5093076;28;20530;-87
2021/01/09 06:38:48;;;;;;;16.00;9.27;;;;;;;3.03;100.00;94803.44;5092989;28;20447;-87
2021/01/09 06:41:16;;;;;;;24.63;13.93;;;;;;;3.07;100.00;94809.28;5093233;28;20443;-86
2021/01/09 06:43:48;;;;;;;13.00;9.23;;;;;;;3.15;100.00;94811.44;5093277;28;20527;-86
2021/01/09 06:46:28;;;;;;;18.80;12.80;;;;;;;3.23;100.00;94812.69;5092631;28;20444;-86
2021/01/09 06:48:55;;;;;;;17.23;10.47;;;;;;;3.26;99.51;94817.69;5092651;28;20488;-86
2021/01/09 06:51:41;;;;;;;25.77;12.13;;;;;;;3.29;100.00;94834.84;5092591;28;20863;-84
2021/01/09 06:54:25;;;;;;;20.83;10.57;;;;;;;3.32;99.76;94842.44;5092837;28;20501;-86
2021/01/09 06:57:07;;;;;;;17.58;10.18;;;;;;;3.36;98.89;94841.34;5092245;28;20486;-86
2021/01/09 06:59:35;;;;;;;12.00;9.23;;;;;;;3.26;99.13;94850.56;5092603;28;20657;-86
2021/01/09 07:02:24;;;;;;;14.03;9.37;;;;;;;3.17;99.05;94843.28;5092797;28;20473;-85
2021/01/09 07:04:58;;;;;;;11.27;7.77;;;;;;;3.19;99.92;94854.44;5092490;28;20477;-86
2021/01/09 07:07:39;;;;;;;18.23;10.50;;;;;;;3.07;99.76;94859.38;5092802;28;20436;-86
2021/01/09 07:10:15;;;;;;;15.10;10.93;;;;;;;3.18;100.00;94866.56;5056956;28;20842;-85
2021/01/09 07:12:47;;;;;;;9.40;8.03;;;;;;;3.15;99.63;94868.47;5092366;28;20923;-85
2021/01/09 07:15:16;;;;;;;7.77;5.70;;;;;;;3.11;99.28;94873.84;5092212;28;20513;-85
2021/01/09 07:17:50;;;;;;;10.60;7.90;;;;;;;3.05;99.73;94886.31;5092419;28;20474;-86
2021/01/09 07:20:18;;;;;;;9.53;7.10;;;;;;;3.07;100.00;94892.25;5095693;28;20220;-85
2021/01/09 07:22:49;;;;;;;8.50;7.07;;;;;;;3.14;100.00;94897.91;5096273;28;20443;-85
2021/01/09 07:25:24;;;;;;;7.10;6.40;;;;;;;3.16;99.70;94896.06;5095937;28;20450;-86
2021/01/09 07:27:54;;;;;;;9.10;7.13;;;;;;;3.12;99.75;94895.41;5096226;28;20775;-86
2021/01/09 07:30:22;;;;;;;9.57;8.57;;;;;;;3.14;99.82;94914.31;5095887;28;20455;-85
2021/01/09 07:32:51;;;;;;;12.27;8.70;;;;;;;3.13;100.00;94911.81;5060424;28;20432;-86
2021/01/09 07:35:29;;;;;;;10.67;8.70;;;;;;;3.16;100.00;94911.63;5096147;28;20483;-85
2021/01/09 07:37:58;;;;;;;11.57;8.63;;;;;;;3.21;100.00;94920.84;5096032;28;20443;-85
2021/01/09 07:40:28;;;;;;;11.38;8.32;;;;;;;3.34;100.00;94931.34;5095235;28;20428;-84
2021/01/09 07:42:54;;;;;;;14.00;9.40;;;;;;;3.45;98.92;94934.16;5095960;28;20210;-85
2021/01/09 07:45:22;;;;;;;14.40;8.47;;;;;;;3.51;98.37;94943.38;5060060;28;20527;-85
2021/01/09 07:47:49;;;;;;;21.80;8.57;;;;;;;3.58;98.08;94945.53;5095769;28;20780;-85
2021/01/09 07:50:18;;;;;;;12.00;8.47;;;;;;;3.60;98.37;94943.69;5095620;28;20928;-86
2021/01/09 07:52:45;;;;;;;8.83;7.90;;;;;;;3.57;97.97;94943.88;5095577;28;20528;-85
2021/01/09 07:55:17;;;;;;;8.73;7.93;;;;;;;3.62;98.06;94952.22;5095299;28;20854;-85
2021/01/09 07:57:44;;;;;;;9.40;8.20;;;;;;;3.69;98.04;94937.97;5095365;28;20475;-86
2021/01/09 08:00:16;;;;;;;14.53;10.00;;;;;;;3.74;96.86;94940.31;5095333;28;20439;-85
2021/01/09 08:02:46;;;;;;;10.53;9.03;;;;;;;3.80;97.60;94947.75;5095859;28;20541;-86
2021/01/09 08:05:15;;;;;;;14.10;10.70;;;;;;;3.83;97.28;94944.16;5095296;28;20873;-85
2021/01/09 08:07:43;;;;;;;13.77;11.60;;;;;;;3.84;97.31;94940.63;5095419;28;20498;-85
2021/01/09 08:10:19;;;;;;;20.27;12.03;;;;;;;3.90;97.48;94942.88;5095903;28;20838;-84
2021/01/09 08:12:46;;;;;;;14.90;10.60;;;;;;;3.96;97.31;94940.75;5095563;28;20450;-85
2021/01/09 08:15:13;;;;;;;18.73;12.87;;;;;;;4.08;97.00;94949.59;5095297;28;20487;-85
2021/01/09 08:17:40;;;;;;;15.73;10.73;;;;;;;4.16;96.61;94942.19;5095213;28;20439;-85
2021/01/09 08:20:11;;;;;;;11.50;10.30;;;;;;;4.21;95.89;94947.94;5095062;28;20449;-85
2021/01/09 08:22:38;;;;;;;15.93;10.30;;;;;;;4.23;96.11;94951.28;5095578;28;20842;-84
2021/01/09 08:25:12;;;;;;;21.20;13.30;;;;;;;4.32;94.94;94955.91;5094969;28;20569;-85
2021/01/09 08:27:47;;;;;;;21.63;12.27;;;;;;;4.49;95.51;94948.88;5094757;28;20484;-85
2021/01/09 08:30:15;;;;;;;17.10;11.03;;;;;;;4.61;94.99;94950.72;5075211;28;20428;-84
2021/01/09 08:32:42;;;;;;;11.83;10.50;;;;;;;4.64;94.82;94945.38;5095005;28;20443;-84
2021/01/09 08:35:11;;;;;;;14.13;10.53;;;;;;;4.64;93.22;94953.19;5042281;28;20483;-85
2021/01/09 08:37:38;;;;;;;18.63;12.70;;;;;;;4.78;94.02;94955.75;5059738;28;20444;-85
2021/01/09 08:40:16;;;;;;;24.40;13.63;;;;;;;4.90;93.71;94952.38;5094405;28;20958;-85
2021/01/09 08:42:54;;;;;;;19.23;12.40;;;;;;;4.93;91.42;94957.44;5094459;28;20447;-85
2021/01/09 08:45:45;;;;;;;15.37;11.00;;;;;;;4.78;90.70;94971.34;5075640;28;20493;-84
2021/01/09 08:48:17;;;;;;;15.80;10.43;;;;;;;4.82;91.68;94961.59;5094201;28;20861;-84
2021/01/09 08:50:55;;;;;;;20.13;13.80;;;;;;;4.85;91.83;94966.59;5094228;28;20451;-85
2021/01/09 08:53:22;;;;;;;11.33;9.40;;;;;;;4.91;92.06;94953.22;5094199;28;20487;-84
2021/01/09 08:55:51;;;;;;;16.30;8.93;;;;;;;4.94;91.20;94956.50;5042244;28;20458;-85
2021/01/09 08:58:19;;;;;;;11.70;10.03;;;;;;;4.95;91.84;94957.34;5094075;28;20486;-83
2021/01/09 09:00:47;;;;;;;13.80;9.40;;;;;;;5.00;90.83;94957.88;5094911;28;20447;-85
2021/01/09 09:03:17;;;;;;;19.40;10.70;;;;;;;5.07;91.24;94953.13;5108169;28;20483;-85
2021/01/09 09:05:46;;;;;;;18.30;11.80;;;;;;;5.04;91.75;94955.91;5047908;28;20451;-84
2021/01/09 09:08:16;;;;;;;12.37;8.07;;;;;;;5.05;90.24;94955.00;5094463;28;20448;-85
2021/01/09 09:10:42;;;;;;;13.67;11.43;;;;;;;5.05;91.25;94953.22;5094103;28;20446;-86
2021/01/09 09:13:19;;;;;;;14.03;10.60;;;;;;;5.05;89.89;94953.22;5093817;28;20461;-87
2021/01/09 09:15:46;;;;;;;22.53;12.77;;;;;;;5.10;90.41;94953.75;5093792;28;20439;-83
2021/01/09 09:18:13;;;;;;;12.63;10.30;;;;;;;5.15;89.81;94953.47;5093805;28;20435;-85
2021/01/09 09:20:44;;;;;;;15.47;10.77;;;;;;;5.17;90.13;94951.59;5094118;28;20443;-86
2021/01/09 09:23:24;;;;;;;11.63;9.63;;;;;;;5.23;89.15;94951.25;5093667;28;20474;-86
2021/01/09 09:26:11;;;;;;;10.03;8.20;;;;;;;5.26;89.04;94945.84;5093889;28;20453;-85
2021/01/09 09:28:45;;;;;;;11.13;9.40;;;;;;;5.26;88.49;94933.69;5094087;28;20969;-84
2021/01/09 09:31:19;;;;;;;16.90;11.33;;;;;;;5.39;89.38;94932.88;5093407;28;20435;-86
2021/01/09 09:33:59;;;;;;;21.10;16.77;;;;;;;5.47;88.43;94943.63;5093441;28;20556;-85
2021/01/09 09:36:25;;;;;;;31.57;18.70;;;;;;;5.51;89.22;94950.34;5093752;28;20443;-86
2021/01/09 09:38:52;;;;;;;32.67;16.80;;;;;;;5.55;88.25;94944.00;5093375;28;20450;-86
2021/01/09 09:41:18;;;;;;;40.37;24.37;;;;;;;5.60;88.44;94945.34;5093098;28;20483;-86
2021/01/09 09:43:57;;;;;;;70.70;31.30;;;;;;;5.60;88.26;94940.16;5057279;28;20455;-86
2021/01/09 09:46:24;;;;;;;38.50;22.40;;;;;;;5.49;88.05;94931.34;5093200;28;20443;-86
2021/01/09 09:48:50;;;;;;;47.57;23.03;;;;;;;5.43;89.26;94935.19;5093767;28;20450;-87
2021/01/09 09:51:17;;;;;;;41.93;22.30;;;;;;;5.41;89.35;94939.66;5093429;28;20446;-87
2021/01/09 09:53:51;;;;;;;34.30;17.20;;;;;;;5.33;89.46;94934.13;5058064;28;20479;-86
2021/01/09 09:56:19;;;;;;;25.40;13.03;;;;;;;5.25;89.76;94929.41;5093585;28;20495;-86
2021/01/09 09:58:46;;;;;;;22.97;14.43;;;;;;;5.28;90.12;94934.41;5093177;28;20436;-87
2021/01/09 10:01:18;;;;;;;13.20;10.10;;;;;;;5.33;89.56;94918.50;5093870;28;20444;-85
2021/01/09 10:03:44;;;;;;;12.73;9.70;;;;;;;5.43;89.34;94911.75;5093460;28;20443;-85
2021/01/09 10:06:10;;;;;;;16.53;11.60;;;;;;;5.41;89.90;94918.84;5093041;28;20444;-86
2021/01/09 10:08:37;;;;;;;19.63;11.73;;;;;;;5.47;89.65;94918.44;5093391;28;20474;-86
2021/01/09 10:11:04;;;;;;;11.30;9.47;;;;;;;5.44;89.02;94918.63;5092826;28;20440;-86
2021/01/09 10:13:31;;;;;;;11.00;8.70;;;;;;;5.51;88.19;94913.91;5093311;28;20483;-84
2021/01/09 10:15:58;;;;;;;27.10;14.13;;;;;;;5.55;89.22;94908.38;5093302;28;20497;-86
2021/01/09 10:18:26;;;;;;;15.50;11.43;;;;;;;5.59;88.42;94911.63;5092994;28;20804;-84
2021/01/09 10:20:53;;;;;;;12.20;10.37;;;;;;;5.68;88.44;94921.44;5093265;28;20447;-86
2021/01/09 10:23:19;;;;;;;18.07;12.33;;;;;;;5.74;87.99;94920.19;5092838;28;20504;-84
2021/01/09 10:25:46;;;;;;;17.00;11.63;;;;;;;5.61;87.93;94920.16;5092723;28;20439;-84
2021/01/09 10:28:13;;;;;;;11.80;9.50;;;;;;;5.62;87.60;94921.00;5092838;28;20451;-84
2021/01/09 10:30:39;;;;;;;63.40;30.97;;;;;;;5.63;88.36;94917.47;5092866;28;20453;-87
2021/01/09 10:33:07;;;;;;;13.43;10.47;;;;;;;5.63;87.93;94923.50;5093385;28;20776;-86
2021/01/09 10:35:34;;;;;;;17.07;9.73;;;;;;;5.62;87.13;94924.44;5041189;28;20528;-86
2021/01/09 10:38:01;;;;;;;18.70;12.53;;;;;;;5.43;87.18;94911.75;5092920;28;20530;-85
2021/01/09 10:40:27;;;;;;;13.60;9.90;;;;;;;5.45;88.35;94915.09;5092628;28;20439;-86
2021/01/09 10:42:53;;;;;;;22.00;13.13;;;;;;;5.33;88.31;94915.06;5007933;28;20435;-86
2021/01/09 10:45:20;;;;;;;22.37;14.00;;;;;;;5.35;88.12;94913.19;5093294;28;20447;-86
2021/01/09 10:47:46;;;;;;;25.33;17.33;;;;;;;5.33;88.88;94909.88;5092890;28;20443;-87
2021/01/09 10:50:13;;;;;;;31.77;16.93;;;;;;;5.29;89.32;94904.03;5093291;28;20431;-87
2021/01/09 10:52:40;;;;;;;35.70;21.70;;;;;;;5.31;89.23;94907.38;5093222;28;20802;-88
2021/01/09 10:55:07;;;;;;;25.93;14.47;;;;;;;5.21;89.76;94908.88;5096736;28;20992;-87
2021/01/09 10:57:34;;;;;;;17.10;10.73;;;;;;;5.27;89.99;94921.50;5041286;28;20465;-87
2021/01/09 11:00:00;;;;;;;23.60;19.13;;;;;;;5.30;88.92;94916.09;5056868;28;20503;-87
2021/01/09 11:02:26;;;;;;;11.37;9.47;;;;;;;5.22;89.71;94920.97;5056319;28;20938;-87
2021/01/09 11:04:53;;;;;;;19.40;13.60;;;;;;;5.13;89.77;94917.16;5037756;28;20448;-86
2021/01/09 11:07:19;;;;;;;17.70;13.03;;;;;;;5.07;90.77;94914.13;5056190;28;20445;-86
2021/01/09 11:09:46;;;;;;;11.37;10.27;;;;;;;5.03;91.33;94907.44;5056198;28;20468;-86
2021/01/09 11:12:12;;;;;;;14.17;11.00;;;;;;;4.99;91.04;94914.59;5056385;28;20453;-86
2021/01/09 11:14:39;;;;;;;10.90;9.80;;;;;;;5.03;91.89;94912.63;5056171;28;20518;-86
2021/01/09 11:17:05;;;;;;;22.20;16.00;;;;;;;5.05;92.14;94924.63;5056113;28;20499;-86
2021/01/09 11:19:31;;;;;;;24.27;16.10;;;;;;;5.15;91.93;94928.28;5056117;28;20676;-87
2021/01/09 11:22:03;;;;;;;21.90;16.20;;;;;;;5.14;90.53;94931.00;5055870;28;20498;-87
2021/01/09 11:24:31;;;;;;;17.80;11.53;;;;;;;5.16;90.40;94934.34;5056018;28;20433;-87
2021/01/09 11:27:06;;;;;;;17.70;12.00;;;;;;;4.85;90.19;94922.41;5056214;28;20532;-88
2021/01/09 11:29:32;;;;;;;16.47;12.47;;;;;;;4.72;91.08;94911.94;5056176;28;20822;-87
2021/01/09 11:32:00;;;;;;;17.30;11.60;;;;;;;4.59;92.05;94913.63;5055842;28;20829;-86
2021/01/09 11:34:27;;;;;;;22.40;17.10;;;;;;;4.53;92.18;94914.81;5055888;28;20857;-87
2021/01/09 11:36:53;;;;;;;33.70;22.70;;;;;;;4.47;92.76;94917.81;5056057;28;20851;-86